Time;durP1;ratioP1;P1;durP2;ratioP2;P2;SDS_P1;SDS_P2;PMS_P1;PMS_P2;Temp;Humidity;BMP_temperature;BMP_pressure;BME280_temperature;BME280_humidity;BME280_pressure;Samples;Min_cycle;Max_cycle;Signal;HPM_P1;HPM_P2
2023/03/31 00:01:04;;;;;;;13.33;2.70;;;;;;;-145.18;100.00;46705.31;6123833;23;20013;-67
2023/03/31 00:03:32;;;;;;;13.57;2.67;;;;;;;-145.18;100.00;46705.31;6124277;23;20013;-67
2023/03/31 00:05:59;;;;;;;14.60;2.23;;;;;;;-145.18;100.00;46709.22;6124112;23;20026;-68
2023/03/31 00:08:34;;;;;;;12.60;2.23;;;;;;;-145.18;100.00;46703.38;6124105;23;20041;-67
2023/03/31 00:11:01;;;;;;;15.13;2.83;;;;;;;-145.18;100.00;46705.31;6124211;23;20428;-68
2023/03/31 00:13:28;;;;;;;13.23;2.30;;;;;;;-145.18;100.00;46707.28;6124200;23;20224;-68
2023/03/31 00:16:03;;;;;;;11.73;2.70;;;;;;;-145.18;100.00;46707.28;6124219;23;20014;-66
2023/03/31 00:18:29;;;;;;;16.90;2.57;;;;;;;-145.18;100.00;46701.41;6124095;23;20006;-66
2023/03/31 00:21:06;;;;;;;17.90;4.03;;;;;;;-145.18;100.00;46699.47;6124536;23;20228;-72
2023/03/31 00:23:31;;;;;;;16.33;2.50;;;;;;;-145.18;100.00;46701.41;6122648;23;20232;-68
2023/03/31 00:25:57;;;;;;;18.00;3.43;;;;;;;-145.18;100.00;46699.47;6122188;23;20866;-68
2023/03/31 00:28:22;;;;;;;15.67;2.63;;;;;;;-145.18;100.00;46689.69;6123936;23;20022;-67
2023/03/31 00:30:48;;;;;;;15.00;2.77;;;;;;;-145.18;100.00;46689.69;6124435;23;20328;-69
2023/03/31 00:33:13;;;;;;;12.67;2.43;;;;;;;-145.18;100.00;46695.56;6123749;23;20085;-67
2023/03/31 00:35:39;;;;;;;11.27;2.90;;;;;;;-145.18;100.00;46687.75;6124163;23;20006;-68
2023/03/31 00:38:07;;;;;;;18.83;2.97;;;;;;;-145.18;100.00;46687.75;6123705;23;20060;-68
2023/03/31 00:40:34;;;;;;;12.57;2.60;;;;;;;-145.18;100.00;46672.13;6124024;23;20025;-68
2023/03/31 00:43:00;;;;;;;18.87;3.70;;;;;;;-145.18;100.00;46677.97;6124524;23;20260;-69
2023/03/31 00:45:29;;;;;;;12.93;2.63;;;;;;;-145.18;100.00;46674.06;6122453;23;20234;-68
2023/03/31 00:48:16;;;;;;;18.87;3.20;;;;;;;-145.18;100.00;46677.97;6124098;23;20400;-68
2023/03/31 00:51:04;;;;;;;15.13;2.90;;;;;;;-145.18;100.00;46681.88;6124164;23;20732;-68
2023/03/31 00:53:31;;;;;;;15.70;3.50;;;;;;;-145.18;100.00;46676.03;6123833;23;20221;-69
2023/03/31 00:56:03;;;;;;;15.63;4.20;;;;;;;-145.18;100.00;46677.97;6123660;23;20236;-68
2023/03/31 00:58:32;;;;;;;15.40;4.13;;;;;;;-145.18;100.00;46676.03;6123593;23;20225;-68
2023/03/31 01:01:01;;;;;;;12.77;4.60;;;;;;;-145.18;100.00;46677.97;6123964;23;20323;-68
2023/03/31 01:03:27;;;;;;;16.30;4.47;;;;;;;-145.18;100.00;46676.03;6123478;23;20613;-68
2023/03/31 01:05:59;;;;;;;19.53;5.20;;;;;;;-145.18;100.00;46676.03;6123967;23;20749;-69
2023/03/31 01:08:27;;;;;;;22.23;5.63;;;;;;;-145.18;100.00;46676.03;6123065;23;20307;-68
2023/03/31 01:10:59;;;;;;;15.73;5.73;;;;;;;-145.18;100.00;46676.03;6124256;23;20273;-68
2023/03/31 01:13:26;;;;;;;22.97;5.03;;;;;;;-145.18;100.00;46672.13;6123484;23;20042;-69
2023/03/31 01:15:52;;;;;;;20.97;5.33;;;;;;;-145.18;100.00;46677.97;6124013;23;20232;-68
2023/03/31 01:18:20;;;;;;;15.90;4.47;;;;;;;-145.18;100.00;46676.03;6123128;23;20228;-68
2023/03/31 01:21:13;;;;;;;18.17;5.10;;;;;;;-145.18;100.00;46679.94;6123832;23;20753;-68
2023/03/31 01:24:16;;;;;;;18.13;4.73;;;;;;;-145.18;100.00;46670.16;6123602;23;20229;-68
2023/03/31 01:27:16;;;;;;;18.43;4.57;;;;;;;-145.18;100.00;46672.13;6123197;23;20221;-68
2023/03/31 01:30:01;;;;;;;16.43;4.33;;;;;;;-145.18;100.00;46668.22;6123421;23;20236;-69
2023/03/31 01:33:01;;;;;;;17.23;4.60;;;;;;;-145.18;100.00;46668.22;6123088;23;20224;-69
2023/03/31 01:35:58;;;;;;;27.43;4.87;;;;;;;-145.18;100.00;46672.13;6123301;23;20232;-69
2023/03/31 01:38:48;;;;;;;20.00;4.22;;;;;;;-145.18;100.00;46674.06;6123064;23;20228;-69
2023/03/31 01:41:30;;;;;;;21.20;4.17;;;;;;;-145.18;100.00;46672.13;6123291;23;20432;-70
2023/03/31 01:44:07;;;;;;;25.00;3.93;;;;;;;-145.18;100.00;46676.03;6123622;23;20221;-70
2023/03/31 01:46:53;;;;;;;18.80;4.20;;;;;;;-145.18;100.00;46674.06;6123121;23;20232;-70
2023/03/31 01:49:34;;;;;;;15.82;3.15;;;;;;;-145.18;100.00;46668.22;6123457;23;20268;-71
2023/03/31 01:52:16;;;;;;;17.87;3.37;;;;;;;-145.18;100.00;46676.03;6123336;23;20002;-72
2023/03/31 01:54:51;;;;;;;20.17;3.53;;;;;;;-145.18;100.00;46668.22;6123595;23;20229;-72
2023/03/31 01:57:31;;;;;;;20.95;2.97;;;;;;;-145.18;100.00;46677.97;6123164;23;20247;-72
2023/03/31 02:03:00;;;;;;;20.43;4.13;;;;;;;-145.18;100.00;46672.13;6132707;23;20585;-72
2023/03/31 02:05:41;;;;;;;23.90;5.30;;;;;;;-145.18;100.00;46670.16;6152330;23;20236;-71
2023/03/31 02:08:50;;;;;;;19.50;3.63;;;;;;;-145.18;100.00;46676.03;6152130;23;20310;-71
2023/03/31 02:11:15;;;;;;;21.63;3.53;;;;;;;-145.18;100.00;46672.13;6090830;23;20729;-69
2023/03/31 02:13:46;;;;;;;20.60;3.77;;;;;;;-145.18;100.00;46670.16;6090389;23;20221;-70
2023/03/31 02:16:19;;;;;;;18.27;3.20;;;;;;;-145.18;100.00;46672.13;6123948;23;20015;-70
2023/03/31 02:18:48;;;;;;;18.00;3.47;;;;;;;-145.18;100.00;46670.16;6152729;23;20645;-70
2023/03/31 02:21:15;;;;;;;21.07;3.10;;;;;;;-145.18;100.00;46666.25;6152847;23;20747;-70
2023/03/31 02:23:41;;;;;;;19.07;3.97;;;;;;;-145.18;100.00;46670.16;6151957;23;20228;-70
2023/03/31 02:26:13;;;;;;;20.97;3.40;;;;;;;-145.18;100.00;46670.16;6152915;23;20259;-70
2023/03/31 02:28:39;;;;;;;18.67;3.40;;;;;;;-145.18;100.00;46668.22;6152275;23;20688;-70
2023/03/31 02:31:40;;;;;;;15.13;3.00;;;;;;;-145.18;100.00;46670.16;6152820;23;20235;-71
2023/03/31 02:34:05;;;;;;;17.90;2.90;;;;;;;-145.18;100.00;46670.16;6152787;23;20005;-70
2023/03/31 02:36:32;;;;;;;19.03;3.47;;;;;;;-145.18;100.00;46664.31;6152322;23;20231;-70
2023/03/31 02:39:05;;;;;;;16.20;2.80;;;;;;;-145.18;100.00;46664.31;6152386;23;19997;-70
2023/03/31 02:41:31;;;;;;;16.60;3.73;;;;;;;-145.18;100.00;46662.34;6152546;23;20295;-70
2023/03/31 02:43:56;;;;;;;17.80;3.33;;;;;;;-145.18;100.00;46662.34;6152067;23;20302;-69
2023/03/31 02:46:22;;;;;;;19.37;3.57;;;;;;;-145.18;100.00;46666.25;6152613;23;20012;-69
2023/03/31 02:48:52;;;;;;;17.60;2.53;;;;;;;-145.18;100.00;46666.25;6151928;23;20454;-69
2023/03/31 02:51:28;;;;;;;18.83;3.27;;;;;;;-145.18;100.00;46664.31;6152650;23;20002;-70
2023/03/31 02:54:01;;;;;;;16.40;2.83;;;;;;;-145.18;100.00;46664.31;6152328;23;20223;-70
2023/03/31 02:56:40;;;;;;;18.17;3.37;;;;;;;-145.18;100.00;46662.34;6152314;23;20224;-70
2023/03/31 02:59:20;;;;;;;12.23;3.27;;;;;;;-145.18;100.00;46670.16;6152539;23;20223;-71
2023/03/31 03:01:48;;;;;;;18.53;3.60;;;;;;;-145.18;100.00;46664.31;6151794;23;20326;-71
2023/03/31 03:04:44;;;;;;;24.43;4.13;;;;;;;-145.18;100.00;46670.16;6152633;23;20228;-70
2023/03/31 03:07:21;;;;;;;20.02;2.78;;;;;;;-145.18;100.00;46662.34;6142882;23;20255;-71
2023/03/31 03:09:59;;;;;;;20.67;3.17;;;;;;;-145.18;100.00;46668.22;6151934;23;20501;-71
2023/03/31 03:12:40;;;;;;;16.97;3.10;;;;;;;-145.18;100.00;46660.41;6152376;23;20256;-71
2023/03/31 03:15:28;;;;;;;13.77;3.20;;;;;;;-145.18;100.00;46664.31;6152633;23;20266;-71
2023/03/31 03:17:55;;;;;;;15.20;4.17;;;;;;;-145.18;100.00;46662.34;6152760;23;20227;-71
2023/03/31 03:20:21;;;;;;;19.43;3.77;;;;;;;-145.18;100.00;46666.25;6154643;23;20228;-74
2023/03/31 03:22:46;;;;;;;14.87;2.77;;;;;;;-145.18;100.00;46672.13;6153933;23;20752;-71
2023/03/31 03:25:13;;;;;;;16.33;3.03;;;;;;;-145.18;100.00;46668.22;6154654;23;20311;-72
2023/03/31 03:27:39;;;;;;;9.37;2.90;;;;;;;-145.18;100.00;46662.34;6153717;23;20336;-71
2023/03/31 03:30:08;;;;;;;15.40;3.23;;;;;;;-145.18;100.00;46662.34;6154515;23;20232;-71
2023/03/31 03:32:34;;;;;;;12.00;2.70;;;;;;;-145.18;100.00;46662.34;6154139;23;20072;-71
2023/03/31 03:35:01;;;;;;;14.57;2.37;;;;;;;-145.18;100.00;46660.41;6154662;23;20232;-72
2023/03/31 03:37:28;;;;;;;14.13;2.67;;;;;;;-145.18;100.00;46660.41;6152515;23;20008;-72
2023/03/31 03:39:53;;;;;;;17.83;2.87;;;;;;;-145.18;100.00;46666.25;6153969;23;20310;-72
2023/03/31 03:42:19;;;;;;;11.23;2.30;;;;;;;-145.18;100.00;46664.31;6154022;23;20255;-73
2023/03/31 03:44:44;;;;;;;10.73;2.00;;;;;;;-145.18;100.00;46664.31;6154077;23;20486;-73
2023/03/31 03:47:10;;;;;;;16.93;2.90;;;;;;;-145.18;100.00;46656.50;6154116;23;20010;-72
2023/03/31 03:49:35;;;;;;;9.07;2.40;;;;;;;-145.18;100.00;46664.31;6153868;23;20445;-72
2023/03/31 03:52:00;;;;;;;16.07;2.43;;;;;;;-145.18;100.00;46664.31;6154067;23;20025;-72
2023/03/31 03:54:26;;;;;;;12.80;2.87;;;;;;;-145.18;100.00;46666.25;6153711;23;20044;-71
2023/03/31 03:56:51;;;;;;;14.00;2.67;;;;;;;-145.18;100.00;46664.31;6150410;23;20002;-72
2023/03/31 03:59:16;;;;;;;11.87;3.20;;;;;;;-145.18;100.00;46670.16;6153609;23;20064;-71
2023/03/31 04:01:42;;;;;;;15.47;3.17;;;;;;;-145.18;100.00;46664.31;6153439;23;20009;-71
2023/03/31 04:04:07;;;;;;;17.63;2.83;;;;;;;-145.18;100.00;46662.34;6153375;23;20025;-71
2023/03/31 04:06:33;;;;;;;13.40;2.60;;;;;;;-145.18;100.00;46664.31;6153581;23;20013;-71
2023/03/31 04:08:59;;;;;;;19.37;3.43;;;;;;;-145.18;100.00;46664.31;6152954;23;20005;-71
2023/03/31 04:11:24;;;;;;;15.90;2.83;;;;;;;-145.18;100.00;46662.34;6153487;23;20242;-71
2023/03/31 04:13:50;;;;;;;18.37;3.07;;;;;;;-145.18;100.00;46664.31;6153261;23;20013;-71
2023/03/31 04:16:15;;;;;;;16.43;4.03;;;;;;;-145.18;100.00;46660.41;6153643;23;20334;-71
2023/03/31 04:18:41;;;;;;;14.27;2.90;;;;;;;-145.18;100.00;46658.44;6153151;23;20009;-72
2023/03/31 04:21:11;;;;;;;13.17;2.40;;;;;;;-145.18;100.00;46660.41;6153292;23;20025;-72
2023/03/31 04:23:41;;;;;;;14.23;2.53;;;;;;;-145.18;100.00;46666.25;6153051;23;20021;-75
2023/03/31 04:26:08;;;;;;;9.73;2.53;;;;;;;-145.18;100.00;46662.34;6152029;23;20251;-73
2023/03/31 04:28:41;;;;;;;10.00;2.77;;;;;;;-145.18;100.00;46668.22;6153030;23;20704;-73
2023/03/31 04:31:08;;;;;;;7.47;1.90;;;;;;;-145.18;100.00;46668.22;6153195;23;20255;-73
2023/03/31 04:33:37;;;;;;;14.40;2.27;;;;;;;-145.18;100.00;46670.16;6152636;23;20331;-73
2023/03/31 04:36:05;;;;;;;10.67;2.20;;;;;;;-145.18;100.00;46672.13;6150391;23;20306;-74
2023/03/31 04:38:32;;;;;;;11.10;2.03;;;;;;;-145.18;100.00;46670.16;6153011;23;20533;-73
2023/03/31 04:40:58;;;;;;;7.30;1.97;;;;;;;-145.18;100.00;46666.25;6152842;23;20228;-73
2023/03/31 04:43:24;;;;;;;14.23;2.30;;;;;;;-145.18;100.00;46672.13;6152469;23;20236;-73
2023/03/31 04:45:49;;;;;;;11.00;1.83;;;;;;;-145.18;100.00;46676.03;6151940;23;20009;-73
2023/03/31 04:48:15;;;;;;;15.17;2.53;;;;;;;-145.18;100.00;46670.16;6151344;23;20526;-73
2023/03/31 04:50:40;;;;;;;10.93;2.07;;;;;;;-145.18;100.00;46672.13;6152934;23;20025;-74
2023/03/31 04:53:06;;;;;;;14.00;2.27;;;;;;;-145.18;100.00;46668.22;6153258;23;20100;-74
2023/03/31 04:55:32;;;;;;;8.80;1.77;;;;;;;-145.18;100.00;46672.13;6153558;23;20016;-76
2023/03/31 04:57:57;;;;;;;10.03;1.60;;;;;;;-145.18;100.00;46672.13;6153071;23;20006;-75
2023/03/31 05:00:23;;;;;;;11.17;2.00;;;;;;;-145.18;100.00;46672.13;6152727;23;20234;-73
2023/03/31 05:02:49;;;;;;;13.57;2.17;;;;;;;-145.18;100.00;46666.25;6152670;23;20018;-73
2023/03/31 05:05:14;;;;;;;11.53;2.13;;;;;;;-145.18;100.00;46672.13;6153462;23;20013;-73
2023/03/31 05:07:40;;;;;;;8.30;1.40;;;;;;;-145.18;100.00;46666.25;6152675;23;20402;-74
2023/03/31 05:10:06;;;;;;;6.93;1.50;;;;;;;-145.18;100.00;46674.06;6153389;23;20009;-73
2023/03/31 05:12:36;;;;;;;9.77;1.67;;;;;;;-145.18;100.00;46672.13;6152757;23;20006;-74
2023/03/31 05:15:02;;;;;;;9.13;1.50;;;;;;;-145.18;100.00;46672.13;6153213;23;20242;-77
2023/03/31 05:17:31;;;;;;;11.83;1.97;;;;;;;-145.18;100.00;46668.22;6152219;23;20720;-73
2023/03/31 05:19:56;;;;;;;9.73;1.47;;;;;;;-145.18;100.00;46676.03;6153322;23;20227;-73
2023/03/31 05:22:22;;;;;;;16.33;1.80;;;;;;;-145.18;100.00;46674.06;6152875;23;20242;-76
2023/03/31 05:24:47;;;;;;;12.43;2.33;;;;;;;-145.18;100.00;46672.13;6152875;23;20010;-76
2023/03/31 05:27:12;;;;;;;10.60;1.93;;;;;;;-145.18;100.00;46670.16;6151456;23;20069;-74
2023/03/31 05:29:38;;;;;;;18.17;2.97;;;;;;;-145.18;100.00;46672.13;6153008;23;20096;-74
2023/03/31 05:32:03;;;;;;;8.10;1.77;;;;;;;-145.18;100.00;46677.97;6153089;23;20331;-74
2023/03/31 05:34:29;;;;;;;9.67;1.40;;;;;;;-145.18;100.00;46674.06;6153167;23;20014;-74
2023/03/31 05:36:55;;;;;;;10.17;2.20;;;;;;;-145.18;100.00;46674.06;6152736;23;20013;-73
2023/03/31 05:39:20;;;;;;;10.70;2.10;;;;;;;-145.18;100.00;46670.16;6152457;23;20002;-73
2023/03/31 05:41:46;;;;;;;11.50;2.10;;;;;;;-145.18;100.00;46672.13;6152674;23;20013;-73
2023/03/31 05:44:11;;;;;;;13.37;1.63;;;;;;;-145.18;100.00;46672.13;6152688;23;20013;-74
2023/03/31 05:46:37;;;;;;;7.47;1.27;;;;;;;-145.18;100.00;46670.16;6142975;23;20057;-74
2023/03/31 05:49:02;;;;;;;9.80;3.00;;;;;;;-145.18;100.00;46670.16;6151689;23;20018;-75
2023/03/31 05:51:28;;;;;;;4.67;1.20;;;;;;;-145.18;100.00;46672.13;6149940;23;20085;-75
2023/03/31 05:53:53;;;;;;;7.67;1.13;;;;;;;-145.18;100.00;46681.88;6151771;23;20018;-75
2023/03/31 05:56:18;;;;;;;8.97;1.63;;;;;;;-145.18;100.00;46672.13;6151948;23;20088;-76
2023/03/31 05:58:44;;;;;;;6.83;1.00;;;;;;;-145.18;100.00;46676.03;6151771;23;20012;-75
2023/03/31 06:01:18;;;;;;;7.43;1.40;;;;;;;-145.18;100.00;46674.06;6148373;23;20678;-75
2023/03/31 06:03:44;;;;;;;7.33;1.10;;;;;;;-145.18;100.00;46683.84;6151102;23;20013;-75
2023/03/31 06:06:13;;;;;;;7.17;1.00;;;;;;;-145.18;100.00;46676.03;6152452;23;20262;-75
2023/03/31 06:08:40;;;;;;;5.87;1.03;;;;;;;-145.18;100.00;46685.78;6150128;23;20584;-76
2023/03/31 06:11:07;;;;;;;11.60;1.40;;;;;;;-145.18;100.00;46674.06;6152083;23;20228;-75
2023/03/31 06:13:36;;;;;;;9.70;0.97;;;;;;;-145.18;100.00;46693.59;6152229;23;20735;-75
2023/03/31 06:16:03;;;;;;;5.43;1.03;;;;;;;-145.18;100.00;46679.94;6144859;23;20238;-75
2023/03/31 06:18:30;;;;;;;4.40;1.00;;;;;;;-145.18;100.00;46672.13;6151834;23;20695;-75
2023/03/31 06:20:56;;;;;;;7.33;0.80;;;;;;;-145.18;100.00;46679.94;6151970;23;20391;-75
2023/03/31 06:23:23;;;;;;;14.70;1.67;;;;;;;-145.18;100.00;46681.88;6151843;23;20219;-76
2023/03/31 06:25:49;;;;;;;6.43;0.97;;;;;;;-145.18;100.00;46674.06;6150418;23;20303;-75
2023/03/31 06:28:14;;;;;;;5.70;1.10;;;;;;;-145.18;100.00;46677.97;6152065;23;20263;-75
2023/03/31 06:30:40;;;;;;;10.07;1.27;;;;;;;-145.18;100.00;46677.97;6152308;23;20253;-75
2023/03/31 06:33:05;;;;;;;5.90;0.97;;;;;;;-145.18;100.00;46677.97;6152035;23;20031;-75
2023/03/31 06:35:31;;;;;;;4.73;0.70;;;;;;;-145.18;100.00;46676.03;6151934;23;20089;-76
2023/03/31 06:37:56;;;;;;;6.83;1.20;;;;;;;-145.18;100.00;46670.16;6151853;23;20418;-75
2023/03/31 06:40:22;;;;;;;8.63;1.10;;;;;;;-145.18;100.00;46676.03;6152533;23;20454;-76
2023/03/31 06:42:47;;;;;;;10.53;1.33;;;;;;;-145.18;100.00;46679.94;6151917;23;20064;-76
2023/03/31 06:45:13;;;;;;;8.00;1.50;;;;;;;-145.18;100.00;46677.97;6152283;23;20017;-75
2023/03/31 06:47:40;;;;;;;12.30;1.67;;;;;;;-145.18;100.00;46674.06;6151847;23;20037;-75
2023/03/31 06:50:07;;;;;;;9.53;1.30;;;;;;;-145.18;100.00;46674.06;6152665;23;20741;-75
2023/03/31 06:52:32;;;;;;;13.80;1.73;;;;;;;-145.18;100.00;46672.13;6151581;23;20227;-76
2023/03/31 06:54:59;;;;;;;7.17;1.50;;;;;;;-145.18;100.00;46668.22;6152105;23;20227;-75
2023/03/31 06:57:25;;;;;;;7.67;1.63;;;;;;;-145.18;100.00;46668.22;6152028;23;20017;-75
2023/03/31 06:59:50;;;;;;;8.37;1.57;;;;;;;-145.18;100.00;46679.94;6151881;23;20238;-75
2023/03/31 07:02:15;;;;;;;6.93;1.73;;;;;;;-145.18;100.00;46668.22;6152113;23;20017;-74
2023/03/31 07:04:41;;;;;;;6.80;1.60;;;;;;;-145.18;100.00;46672.13;6152093;23;20006;-74
2023/03/31 07:07:06;;;;;;;6.93;1.63;;;;;;;-145.18;100.00;46670.16;6152024;23;20014;-74
2023/03/31 07:09:32;;;;;;;7.93;1.90;;;;;;;-145.18;100.00;46664.31;6150575;23;20017;-75
2023/03/31 07:11:57;;;;;;;7.47;1.93;;;;;;;-145.18;100.00;46670.16;6151949;23;20016;-74
2023/03/31 07:14:23;;;;;;;6.90;2.30;;;;;;;-145.18;100.00;46668.22;6152182;23;20010;-74
2023/03/31 07:16:49;;;;;;;16.17;2.17;;;;;;;-145.18;100.00;46672.13;6151982;23;20085;-74
2023/03/31 07:19:15;;;;;;;8.37;1.87;;;;;;;-145.18;100.00;46672.13;6152004;23;20117;-74
2023/03/31 07:21:40;;;;;;;7.80;1.87;;;;;;;-145.18;100.00;46664.31;6151872;23;20243;-73
2023/03/31 07:24:05;;;;;;;10.70;2.20;;;;;;;-145.18;100.00;46666.25;6150472;23;20437;-73
2023/03/31 07:26:31;;;;;;;8.80;2.20;;;;;;;-145.18;100.00;46672.13;6152253;23;20005;-73
2023/03/31 07:28:56;;;;;;;10.40;1.97;;;;;;;-145.18;100.00;46683.84;6151777;23;20413;-74
2023/03/31 07:31:22;;;;;;;6.67;2.10;;;;;;;-145.18;100.00;46672.13;6152445;23;20013;-74
2023/03/31 07:33:47;;;;;;;7.60;2.40;;;;;;;-145.18;100.00;46672.13;6151556;23;20009;-74
2023/03/31 07:36:13;;;;;;;11.97;2.27;;;;;;;-145.18;100.00;46670.16;6152522;23;20040;-75
2023/03/31 07:38:41;;;;;;;15.53;2.70;;;;;;;-145.18;100.00;46672.13;6151959;23;20422;-74
2023/03/31 07:41:10;;;;;;;12.13;2.60;;;;;;;-145.18;100.00;46668.22;6152167;23;20029;-74
2023/03/31 07:43:36;;;;;;;14.43;2.80;;;;;;;-145.18;100.00;46668.22;6152198;23;20672;-73
2023/03/31 07:46:02;;;;;;;14.27;2.83;;;;;;;-145.18;100.00;46668.22;6151882;23;20232;-74
2023/03/31 07:48:27;;;;;;;17.37;3.20;;;;;;;-145.18;100.00;46674.06;6150943;23;20526;-74
2023/03/31 07:50:53;;;;;;;21.03;3.47;;;;;;;-145.18;100.00;46677.97;6151815;23;20096;-73
2023/03/31 07:53:18;;;;;;;14.83;2.93;;;;;;;-145.18;100.00;46674.06;6152098;23;20028;-73
2023/03/31 07:55:46;;;;;;;14.27;2.93;;;;;;;-145.18;100.00;46672.13;6151219;23;20016;-74
2023/03/31 07:58:11;;;;;;;18.07;3.23;;;;;;;-145.18;100.00;46677.97;6150705;23;20403;-74
2023/03/31 08:00:37;;;;;;;17.23;2.93;;;;;;;-145.18;100.00;46676.03;6151923;23;20235;-74
2023/03/31 08:03:02;;;;;;;19.17;4.10;;;;;;;-145.18;100.00;46676.03;6151489;23;20068;-74
2023/03/31 08:05:28;;;;;;;18.53;5.03;;;;;;;-145.18;100.00;46672.13;6153099;23;20009;-73
2023/03/31 08:07:53;;;;;;;19.43;3.23;;;;;;;-145.18;100.00;46674.06;6152648;23;20503;-73
2023/03/31 08:10:26;;;;;;;16.53;3.00;;;;;;;-145.18;100.00;46672.13;6152865;23;20379;-73
2023/03/31 08:12:52;;;;;;;17.90;3.10;;;;;;;-145.18;100.00;46672.13;6152218;23;20076;-74
2023/03/31 08:15:18;;;;;;;22.70;3.27;;;;;;;-145.18;100.00;46676.03;6151702;23;20240;-74
2023/03/31 08:17:44;;;;;;;15.63;3.37;;;;;;;-145.18;100.00;46679.94;6152952;23;20013;-73
2023/03/31 08:20:10;;;;;;;19.80;3.63;;;;;;;-145.18;100.00;46672.13;6153869;23;20012;-74
2023/03/31 08:22:37;;;;;;;29.90;3.20;;;;;;;-145.18;100.00;46677.97;6153443;23;20010;-74
2023/03/31 08:25:03;;;;;;;17.33;3.90;;;;;;;-145.18;100.00;46676.03;6153647;23;20488;-74
2023/03/31 08:27:33;;;;;;;10.50;2.60;;;;;;;-145.18;100.00;46679.94;6153321;23;20485;-74
2023/03/31 08:30:02;;;;;;;17.10;3.73;;;;;;;-145.18;100.00;46677.97;6153464;23;20013;-74
2023/03/31 08:32:27;;;;;;;17.00;3.63;;;;;;;-145.18;100.00;46683.84;6153791;23;20018;-74
2023/03/31 08:34:52;;;;;;;22.83;3.50;;;;;;;-145.18;100.00;46679.94;6152895;23;20020;-74
2023/03/31 08:37:18;;;;;;;23.57;3.63;;;;;;;-145.18;100.00;46679.94;6152119;23;20064;-74
2023/03/31 08:39:43;;;;;;;18.57;3.30;;;;;;;-145.18;100.00;46683.84;6153106;23;20012;-74
2023/03/31 08:42:18;;;;;;;28.20;4.67;;;;;;;-145.18;100.00;46681.88;6153570;23;20010;-73
2023/03/31 08:45:17;;;;;;;23.10;4.72;;;;;;;-145.18;100.00;46683.84;6153248;23;20012;-72
2023/03/31 08:47:46;;;;;;;19.23;3.77;;;;;;;-145.18;100.00;46689.69;6152693;23;20016;-73
2023/03/31 08:50:15;;;;;;;15.13;3.37;;;;;;;-145.18;100.00;46687.75;6153499;23;20009;-73
2023/03/31 08:52:51;;;;;;;18.43;3.07;;;;;;;-145.18;100.00;46687.75;6153363;23;20335;-71
2023/03/31 08:55:24;;;;;;;23.87;3.67;;;;;;;-145.18;100.00;46689.69;6153579;23;20354;-71
2023/03/31 08:57:52;;;;;;;14.60;2.87;;;;;;;-145.18;100.00;46695.56;6152386;23;20002;-71
2023/03/31 09:00:18;;;;;;;15.80;4.00;;;;;;;-145.18;100.00;46691.66;6153054;23;20063;-71
2023/03/31 09:03:13;;;;;;;19.93;3.20;;;;;;;-145.18;100.00;46697.50;6152592;23;20020;-71
2023/03/31 09:05:55;;;;;;;19.30;3.20;;;;;;;-145.18;100.00;46681.88;6152782;23;20013;-71
2023/03/31 09:08:37;;;;;;;13.50;2.90;;;;;;;-145.18;100.00;46662.34;6152546;23;20439;-71
2023/03/31 09:11:22;;;;;;;13.30;2.33;;;;;;;-145.18;100.00;46617.41;6151790;23;20009;-71
2023/03/31 09:13:58;;;;;;;23.70;3.28;;;;;;;-145.18;100.00;46593.97;6131326;23;20264;-71
2023/03/31 09:16:26;;;;;;;20.20;3.77;;;;;;;-145.18;100.00;46584.22;6152604;23;20005;-71
2023/03/31 09:19:00;;;;;;;22.60;3.33;;;;;;;-145.18;100.00;46568.59;6151881;23;20383;-71
2023/03/31 09:21:39;;;;;;;15.73;2.73;;;;;;;-145.18;100.00;46564.69;6152848;23;20002;-71
2023/03/31 09:24:16;;;;;;;15.80;3.27;;;;;;;-145.18;100.00;46570.53;6152303;23;20005;-71
2023/03/31 09:27:02;;;;;;;20.57;3.47;;;;;;;-145.18;100.00;46574.44;6152361;23;20012;-71
2023/03/31 09:29:40;;;;;;;13.85;3.13;;;;;;;-145.18;100.00;46564.69;6152834;23;20013;-71
2023/03/31 09:32:28;;;;;;;23.83;4.30;;;;;;;-145.18;100.00;46576.41;6153253;23;20088;-72
2023/03/31 09:35:11;;;;;;;18.17;4.30;;;;;;;-145.18;100.00;46586.16;6151719;23;20054;-71
2023/03/31 09:37:36;;;;;;;25.47;3.53;;;;;;;-145.18;100.00;46597.88;6152642;23;20013;-72
2023/03/31 09:40:09;;;;;;;12.87;2.73;;;;;;;-145.18;100.00;46593.97;6152240;23;20036;-71
2023/03/31 09:42:36;;;;;;;15.33;3.17;;;;;;;-145.18;100.00;46619.38;6152282;23;20020;-72
2023/03/31 09:45:01;;;;;;;17.40;3.27;;;;;;;-145.18;100.00;46621.31;6151307;23;20382;-72
2023/03/31 09:47:39;;;;;;;15.97;3.00;;;;;;;-145.18;100.00;46613.50;6150220;23;20036;-72
2023/03/31 09:50:06;;;;;;;20.83;3.40;;;;;;;-145.18;100.00;46615.47;6151008;23;20008;-72
2023/03/31 09:52:36;;;;;;;20.00;3.37;;;;;;;-145.18;100.00;46617.41;6152596;23;20013;-72
2023/03/31 09:55:04;;;;;;;16.03;3.60;;;;;;;-145.18;100.00;46638.91;6151299;23;20048;-72
2023/03/31 09:57:31;;;;;;;16.90;2.73;;;;;;;-145.18;100.00;46633.06;6152502;23;20686;-72
2023/03/31 10:00:13;;;;;;;14.80;2.93;;;;;;;-145.18;100.00;46660.41;6152099;23;20627;-72
2023/03/31 10:02:52;;;;;;;12.70;2.53;;;;;;;-145.18;100.00;46640.88;6147058;23;20014;-72
2023/03/31 10:05:26;;;;;;;12.70;2.83;;;;;;;-145.18;100.00;46676.03;6152113;23;20024;-72
2023/03/31 10:08:13;;;;;;;17.50;2.30;;;;;;;-145.18;100.00;46674.06;6152241;23;20006;-72
2023/03/31 10:10:44;;;;;;;15.50;3.00;;;;;;;-145.18;100.00;46654.53;6152249;23;20346;-72
2023/03/31 10:13:12;;;;;;;12.63;2.97;;;;;;;-145.18;100.00;46668.22;6152042;23;20005;-72
2023/03/31 10:15:38;;;;;;;15.07;2.17;;;;;;;-145.18;100.00;46672.13;6152588;23;20096;-71
2023/03/31 10:18:03;;;;;;;16.80;3.00;;;;;;;-145.18;100.00;46668.22;6152336;23;20084;-71
2023/03/31 10:20:37;;;;;;;12.90;2.10;;;;;;;-145.18;100.00;46676.03;6152307;23;20016;-71
2023/03/31 10:23:21;;;;;;;19.30;3.40;;;;;;;-145.18;100.00;46656.50;6151948;23;20002;-72
2023/03/31 10:25:47;;;;;;;13.87;2.73;;;;;;;-145.18;100.00;46656.50;6152460;23;20009;-71
2023/03/31 10:28:19;;;;;;;12.97;2.37;;;;;;;-145.18;100.00;46670.16;6152049;23;20498;-71
2023/03/31 10:30:50;;;;;;;13.50;2.90;;;;;;;-145.18;100.00;46642.81;6152135;23;20013;-71
2023/03/31 10:33:26;;;;;;;12.03;2.03;;;;;;;-145.18;100.00;46636.94;6151644;23;20002;-71
2023/03/31 10:35:56;;;;;;;18.30;2.25;;;;;;;-145.18;100.00;46646.72;6152274;23;20012;-71
2023/03/31 10:38:44;;;;;;;12.03;2.23;;;;;;;-145.18;100.00;46638.91;6152312;23;20339;-71
2023/03/31 10:41:10;;;;;;;11.70;2.30;;;;;;;-145.18;100.00;46633.06;6152258;23;20032;-71
2023/03/31 10:43:40;;;;;;;18.07;2.97;;;;;;;-145.18;100.00;46648.69;6151885;23;20092;-72
2023/03/31 10:46:06;;;;;;;15.83;2.80;;;;;;;-145.18;100.00;46633.06;6151577;23;20013;-72
2023/03/31 10:48:34;;;;;;;19.43;2.33;;;;;;;-145.18;100.00;46631.09;6152036;23;20013;-71
2023/03/31 10:51:24;;;;;;;17.03;2.27;;;;;;;-145.18;100.00;46625.22;6151612;23;20075;-71
2023/03/31 10:53:51;;;;;;;20.53;3.93;;;;;;;-145.18;100.00;46623.28;6151048;23;20317;-71
2023/03/31 10:56:24;;;;;;;15.20;2.60;;;;;;;-145.18;100.00;46603.75;6151895;23;20077;-71
2023/03/31 10:59:15;;;;;;;26.60;3.53;;;;;;;-145.18;100.00;46588.13;6149451;23;20010;-71
2023/03/31 11:02:02;;;;;;;21.03;3.03;;;;;;;-145.18;100.00;46578.34;6150467;23;20423;-71
2023/03/31 11:04:42;;;;;;;15.50;2.23;;;;;;;-145.18;100.00;46570.53;6151061;23;20018;-71
2023/03/31 11:07:19;;;;;;;17.10;3.83;;;;;;;-145.18;100.00;46570.53;6151878;23;20010;-70
2023/03/31 11:10:09;;;;;;;19.50;2.97;;;;;;;-145.18;100.00;46590.06;6151003;23;20040;-71
2023/03/31 11:12:50;;;;;;;14.90;2.90;;;;;;;-145.18;100.00;46636.94;6151771;23;20009;-71
2023/03/31 11:15:37;;;;;;;24.63;3.90;;;;;;;-145.18;100.00;46668.22;6151404;23;20096;-71
2023/03/31 11:18:02;;;;;;;18.90;2.77;;;;;;;-145.18;100.00;46683.84;6150852;23;20001;-71
2023/03/31 11:20:41;;;;;;;18.83;3.20;;;;;;;-145.18;100.00;46687.75;6150671;23;20319;-71